sensor_id;sensor_type;location;lat;lon;timestamp;pressure;altitude;pressure_sealevel;temperature;humidity
43770;BME280;6597;52.218;9.882;2023-01-31T00:01:39;101102.13;;;3.94;91.85
43770;BME280;6597;52.218;9.882;2023-01-31T00:04:08;101090.00;;;3.95;91.72
43770;BME280;6597;52.218;9.882;2023-01-31T00:06:37;101089.13;;;3.93;92.06
43770;BME280;6597;52.218;9.882;2023-01-31T00:09:07;101095.19;;;3.92;91.39
43770;BME280;6597;52.218;9.882;2023-01-31T00:11:34;101102.97;;;3.89;91.57
43770;BME280;6597;52.218;9.882;2023-01-31T00:14:03;101102.13;;;3.85;92.11
43770;BME280;6597;52.218;9.882;2023-01-31T00:16:30;101107.31;;;3.82;92.07
43770;BME280;6597;52.218;9.882;2023-01-31T00:18:57;101126.38;;;3.92;91.63
43770;BME280;6597;52.218;9.882;2023-01-31T00:21:25;101119.41;;;3.89;91.61
43770;BME280;6597;52.218;9.882;2023-01-31T00:23:53;101123.78;;;3.90;91.86
43770;BME280;6597;52.218;9.882;2023-01-31T00:26:22;101122.91;;;3.91;91.69
43770;BME280;6597;52.218;9.882;2023-01-31T00:28:51;101128.97;;;3.95;91.99
43770;BME280;6597;52.218;9.882;2023-01-31T00:31:19;101135.00;;;4.03;91.46
43770;BME280;6597;52.218;9.882;2023-01-31T00:33:49;101134.97;;;4.14;91.10
43770;BME280;6597;52.218;9.882;2023-01-31T00:36:17;101134.94;;;4.20;90.55
43770;BME280;6597;52.218;9.882;2023-01-31T00:38:47;101119.34;;;4.18;90.55
43770;BME280;6597;52.218;9.882;2023-01-31T00:41:14;101135.78;;;4.22;90.64
43770;BME280;6597;52.218;9.882;2023-01-31T00:43:42;101152.25;;;4.27;90.95
43770;BME280;6597;52.218;9.882;2023-01-31T00:46:08;101123.66;;;4.30;91.30
43770;BME280;6597;52.218;9.882;2023-01-31T00:48:35;101141.88;;;4.27;91.84
43770;BME280;6597;52.218;9.882;2023-01-31T00:51:02;101142.75;;;4.26;92.64
43770;BME280;6597;52.218;9.882;2023-01-31T00:53:29;101138.44;;;4.13;94.20
43770;BME280;6597;52.218;9.882;2023-01-31T00:56:05;101130.69;;;3.99;95.11
43770;BME280;6597;52.218;9.882;2023-01-31T00:58:34;101148.00;;;3.95;95.34
43770;BME280;6597;52.218;9.882;2023-01-31T01:01:07;101147.13;;;3.99;95.83
43770;BME280;6597;52.218;9.882;2023-01-31T01:03:35;101144.50;;;4.09;95.32
43770;BME280;6597;52.218;9.882;2023-01-31T01:06:01;101144.47;;;4.13;95.38
43770;BME280;6597;52.218;9.882;2023-01-31T01:08:28;101148.81;;;4.17;94.49
43770;BME280;6597;52.218;9.882;2023-01-31T01:10:55;101151.38;;;4.20;94.71
43770;BME280;6597;52.218;9.882;2023-01-31T01:13:21;101154.84;;;4.22;95.46
43770;BME280;6597;52.218;9.882;2023-01-31T01:15:48;101154.84;;;4.22;96.60
43770;BME280;6597;52.218;9.882;2023-01-31T01:18:17;101156.59;;;4.20;98.01
43770;BME280;6597;52.218;9.882;2023-01-31T01:20:43;101157.47;;;4.16;99.18
43770;BME280;6597;52.218;9.882;2023-01-31T01:23:10;101168.72;;;4.14;100.00
43770;BME280;6597;52.218;9.882;2023-01-31T01:25:41;101166.16;;;4.07;100.00
43770;BME280;6597;52.218;9.882;2023-01-31T01:28:08;101160.09;;;4.02;100.00
43770;BME280;6597;52.218;9.882;2023-01-31T01:30:36;101176.56;;;3.98;100.00
43770;BME280;6597;52.218;9.882;2023-01-31T01:33:02;101188.69;;;3.96;100.00
43770;BME280;6597;52.218;9.882;2023-01-31T01:35:30;101191.28;;;3.99;100.00
43770;BME280;6597;52.218;9.882;2023-01-31T01:37:57;101200.78;;;3.90;100.00
43770;BME280;6597;52.218;9.882;2023-01-31T01:40:24;101188.72;;;3.90;99.15
43770;BME280;6597;52.218;9.882;2023-01-31T01:42:50;101193.91;;;3.92;98.64
43770;BME280;6597;52.218;9.882;2023-01-31T01:45:17;101197.34;;;3.91;97.92
43770;BME280;6597;52.218;9.882;2023-01-31T01:47:46;101202.53;;;3.89;97.31
43770;BME280;6597;52.218;9.882;2023-01-31T01:50:19;101214.66;;;3.89;97.80
43770;BME280;6597;52.218;9.882;2023-01-31T01:52:51;101199.06;;;3.87;97.57
43770;BME280;6597;52.218;9.882;2023-01-31T01:55:22;101205.16;;;3.92;97.67
43770;BME280;6597;52.218;9.882;2023-01-31T01:57:59;101203.38;;;3.88;98.33
43770;BME280;6597;52.218;9.882;2023-01-31T02:00:29;101199.94;;;3.89;97.74
43770;BME280;6597;52.218;9.882;2023-01-31T02:02:58;101201.69;;;3.95;97.91
43770;BME280;6597;52.218;9.882;2023-01-31T02:05:28;101204.28;;;3.96;98.24
43770;BME280;6597;52.218;9.882;2023-01-31T02:07:59;101203.41;;;3.96;97.87
43770;BME280;6597;52.218;9.882;2023-01-31T02:10:30;101206.88;;;3.95;97.24
43770;BME280;6597;52.218;9.882;2023-01-31T02:12:58;101199.94;;;3.98;97.00
43770;BME280;6597;52.218;9.882;2023-01-31T02:15:27;101211.19;;;3.99;96.67
43770;BME280;6597;52.218;9.882;2023-01-31T02:17:54;101221.59;;;3.97;97.08
43770;BME280;6597;52.218;9.882;2023-01-31T02:20:54;101215.53;;;3.94;96.94
43770;BME280;6597;52.218;9.882;2023-01-31T02:24:13;101222.47;;;3.90;96.29
43770;BME280;6597;52.218;9.882;2023-01-31T02:30:21;101220.72;;;3.95;96.08
43770;BME280;6597;52.218;9.882;2023-01-31T02:33:01;101222.47;;;3.99;95.74
43770;BME280;6597;52.218;9.882;2023-01-31T02:35:42;101219.84;;;4.04;95.95
43770;BME280;6597;52.218;9.882;2023-01-31T02:38:23;101218.97;;;4.05;96.10
43770;BME280;6597;52.218;9.882;2023-01-31T02:41:06;101225.03;;;4.12;95.56
43770;BME280;6597;52.218;9.882;2023-01-31T02:43:40;101226.75;;;4.13;95.75
43770;BME280;6597;52.218;9.882;2023-01-31T02:46:25;101235.41;;;4.15;96.36
43770;BME280;6597;52.218;9.882;2023-01-31T02:49:02;101235.44;;;4.02;99.13
43770;BME280;6597;52.218;9.882;2023-01-31T02:51:32;101230.25;;;3.90;100.00
43770;BME280;6597;52.218;9.882;2023-01-31T02:54:08;101232.84;;;3.83;100.00
43770;BME280;6597;52.218;9.882;2023-01-31T02:56:40;101231.09;;;3.77;100.00
43770;BME280;6597;52.218;9.882;2023-01-31T02:59:12;101228.50;;;3.74;100.00
43770;BME280;6597;52.218;9.882;2023-01-31T03:01:42;101230.25;;;3.69;100.00
43770;BME280;6597;52.218;9.882;2023-01-31T03:04:13;101227.66;;;3.66;100.00
43770;BME280;6597;52.218;9.882;2023-01-31T03:06:51;101232.84;;;3.67;100.00
43770;BME280;6597;52.218;9.882;2023-01-31T03:09:37;101229.38;;;3.64;100.00
43770;BME280;6597;52.218;9.882;2023-01-31T03:12:30;101224.19;;;3.68;100.00
43770;BME280;6597;52.218;9.882;2023-01-31T03:15:23;101222.44;;;3.72;100.00
43770;BME280;6597;52.218;9.882;2023-01-31T03:18:15;101215.53;;;3.71;100.00
43770;BME280;6597;52.218;9.882;2023-01-31T03:20:49;101211.19;;;3.78;100.00
43770;BME280;6597;52.218;9.882;2023-01-31T03:23:20;101213.78;;;3.78;100.00
43770;BME280;6597;52.218;9.882;2023-01-31T03:25:48;101212.06;;;3.81;100.00
43770;BME280;6597;52.218;9.882;2023-01-31T03:28:19;101207.72;;;3.86;100.00
43770;BME280;6597;52.218;9.882;2023-01-31T03:30:52;101212.06;;;3.84;100.00
43770;BME280;6597;52.218;9.882;2023-01-31T03:33:24;101213.78;;;3.87;100.00
43770;BME280;6597;52.218;9.882;2023-01-31T03:35:56;101205.16;;;3.92;100.00
43770;BME280;6597;52.218;9.882;2023-01-31T03:38:31;101206.00;;;3.94;100.00
43770;BME280;6597;52.218;9.882;2023-01-31T03:41:04;101207.75;;;3.95;100.00
43770;BME280;6597;52.218;9.882;2023-01-31T03:43:36;101196.47;;;3.98;100.00
43770;BME280;6597;52.218;9.882;2023-01-31T03:46:06;101193.03;;;3.99;100.00
43770;BME280;6597;52.218;9.882;2023-01-31T03:48:39;101196.47;;;3.96;100.00
43770;BME280;6597;52.218;9.882;2023-01-31T03:51:13;101188.69;;;4.02;100.00
43770;BME280;6597;52.218;9.882;2023-01-31T03:53:45;101187.81;;;4.02;100.00
43770;BME280;6597;52.218;9.882;2023-01-31T03:56:16;101191.28;;;3.98;100.00
43770;BME280;6597;52.218;9.882;2023-01-31T03:58:48;101199.06;;;3.99;99.80
43770;BME280;6597;52.218;9.882;2023-01-31T04:01:19;101204.28;;;3.90;98.93
43770;BME280;6597;52.218;9.882;2023-01-31T04:03:51;101205.13;;;3.88;98.73
43770;BME280;6597;52.218;9.882;2023-01-31T04:06:21;101181.78;;;3.71;98.85
43770;BME280;6597;52.218;9.882;2023-01-31T04:08:47;101196.50;;;3.67;99.37
43770;BME280;6597;52.218;9.882;2023-01-31T04:11:14;101196.50;;;3.61;99.87
43770;BME280;6597;52.218;9.882;2023-01-31T04:13:45;101191.28;;;3.55;100.00
43770;BME280;6597;52.218;9.882;2023-01-31T04:16:12;101189.53;;;3.50;100.00
43770;BME280;6597;52.218;9.882;2023-01-31T04:18:39;101194.75;;;3.48;100.00
43770;BME280;6597;52.218;9.882;2023-01-31T04:21:05;101183.50;;;3.37;100.00
43770;BME280;6597;52.218;9.882;2023-01-31T04:23:33;101186.94;;;3.36;100.00
43770;BME280;6597;52.218;9.882;2023-01-31T04:25:59;101188.69;;;3.37;100.00
43770;BME280;6597;52.218;9.882;2023-01-31T04:28:26;101186.09;;;3.35;100.00
43770;BME280;6597;52.218;9.882;2023-01-31T04:30:54;101188.69;;;3.31;100.00
43770;BME280;6597;52.218;9.882;2023-01-31T04:33:22;101195.59;;;3.27;100.00
43770;BME280;6597;52.218;9.882;2023-01-31T04:35:50;101193.88;;;3.26;100.00
43770;BME280;6597;52.218;9.882;2023-01-31T04:38:17;101193.00;;;3.27;100.00
43770;BME280;6597;52.218;9.882;2023-01-31T04:40:44;101199.06;;;3.31;100.00
43770;BME280;6597;52.218;9.882;2023-01-31T04:43:11;101205.13;;;3.37;100.00
43770;BME280;6597;52.218;9.882;2023-01-31T04:45:38;101199.94;;;3.45;100.00
43770;BME280;6597;52.218;9.882;2023-01-31T04:48:05;101200.78;;;3.49;100.00
43770;BME280;6597;52.218;9.882;2023-01-31T04:50:32;101198.19;;;3.49;100.00
43770;BME280;6597;52.218;9.882;2023-01-31T04:52:58;101202.53;;;3.47;100.00
43770;BME280;6597;52.218;9.882;2023-01-31T04:55:25;101193.88;;;3.48;100.00
43770;BME280;6597;52.218;9.882;2023-01-31T04:57:53;101206.84;;;3.38;100.00
43770;BME280;6597;52.218;9.882;2023-01-31T05:00:20;101194.75;;;3.40;99.93
43770;BME280;6597;52.218;9.882;2023-01-31T05:02:47;101213.78;;;3.41;99.92
43770;BME280;6597;52.218;9.882;2023-01-31T05:05:14;101213.75;;;3.35;99.89
43770;BME280;6597;52.218;9.882;2023-01-31T05:07:42;101212.03;;;3.38;98.79
43770;BME280;6597;52.218;9.882;2023-01-31T05:10:09;101212.91;;;3.31;99.06
43770;BME280;6597;52.218;9.882;2023-01-31T05:12:36;101211.16;;;3.29;99.41
43770;BME280;6597;52.218;9.882;2023-01-31T05:15:05;101205.06;;;3.22;99.29
43770;BME280;6597;52.218;9.882;2023-01-31T05:17:32;101204.19;;;3.19;99.79
43770;BME280;6597;52.218;9.882;2023-01-31T05:19:59;101208.53;;;3.24;99.64
43770;BME280;6597;52.218;9.882;2023-01-31T05:22:25;101198.19;;;3.29;99.91
43770;BME280;6597;52.218;9.882;2023-01-31T05:24:52;101205.13;;;3.30;99.94
43770;BME280;6597;52.218;9.882;2023-01-31T05:27:18;101203.38;;;3.27;100.00
43770;BME280;6597;52.218;9.882;2023-01-31T05:29:45;101208.56;;;3.32;100.00
43770;BME280;6597;52.218;9.882;2023-01-31T05:32:13;101207.72;;;3.34;99.83
43770;BME280;6597;52.218;9.882;2023-01-31T05:34:40;101208.56;;;3.39;99.77
43770;BME280;6597;52.218;9.882;2023-01-31T05:37:07;101195.59;;;3.41;99.40
43770;BME280;6597;52.218;9.882;2023-01-31T05:39:33;101189.53;;;3.37;99.88
43770;BME280;6597;52.218;9.882;2023-01-31T05:42:00;101198.19;;;3.38;99.71
43770;BME280;6597;52.218;9.882;2023-01-31T05:44:27;101199.06;;;3.38;99.84
43770;BME280;6597;52.218;9.882;2023-01-31T05:46:53;101204.25;;;3.37;100.00
43770;BME280;6597;52.218;9.882;2023-01-31T05:49:21;101199.94;;;3.37;100.00
43770;BME280;6597;52.218;9.882;2023-01-31T05:51:48;101191.28;;;3.41;100.00
43770;BME280;6597;52.218;9.882;2023-01-31T05:54:14;101193.00;;;3.44;99.73
43770;BME280;6597;52.218;9.882;2023-01-31T05:56:41;101191.28;;;3.52;99.53
43770;BME280;6597;52.218;9.882;2023-01-31T05:59:08;101187.81;;;3.52;99.49
43770;BME280;6597;52.218;9.882;2023-01-31T06:01:34;101187.81;;;3.55;99.53
43770;BME280;6597;52.218;9.882;2023-01-31T06:04:01;101191.28;;;3.57;99.86
43770;BME280;6597;52.218;9.882;2023-01-31T06:06:29;101185.25;;;3.58;99.52
43770;BME280;6597;52.218;9.882;2023-01-31T06:08:55;101185.25;;;3.61;99.47
43770;BME280;6597;52.218;9.882;2023-01-31T06:11:22;101171.41;;;3.63;99.37
43770;BME280;6597;52.218;9.882;2023-01-31T06:13:49;101183.50;;;3.66;99.34
43770;BME280;6597;52.218;9.882;2023-01-31T06:16:16;101182.66;;;3.64;99.16
43770;BME280;6597;52.218;9.882;2023-01-31T06:18:42;101175.72;;;3.69;99.07
43770;BME280;6597;52.218;9.882;2023-01-31T06:21:09;101173.13;;;3.70;99.14
43770;BME280;6597;52.218;9.882;2023-01-31T06:23:37;101174.84;;;3.73;99.04
43770;BME280;6597;52.218;9.882;2023-01-31T06:26:04;101169.66;;;3.73;99.00
43770;BME280;6597;52.218;9.882;2023-01-31T06:28:31;101179.19;;;3.74;99.07
43770;BME280;6597;52.218;9.882;2023-01-31T06:30:57;101180.91;;;3.77;99.28
43770;BME280;6597;52.218;9.882;2023-01-31T06:33:24;101178.31;;;3.75;98.91
43770;BME280;6597;52.218;9.882;2023-01-31T06:35:50;101176.59;;;3.74;98.63
43770;BME280;6597;52.218;9.882;2023-01-31T06:38:17;101173.97;;;3.74;98.80
43770;BME280;6597;52.218;9.882;2023-01-31T06:40:45;101175.72;;;3.75;98.70
43770;BME280;6597;52.218;9.882;2023-01-31T06:43:11;101173.13;;;3.80;98.44
43770;BME280;6597;52.218;9.882;2023-01-31T06:45:38;101171.38;;;3.80;98.24
43770;BME280;6597;52.218;9.882;2023-01-31T06:48:04;101167.03;;;3.82;97.94
43770;BME280;6597;52.218;9.882;2023-01-31T06:50:31;101167.03;;;3.82;98.23
43770;BME280;6597;52.218;9.882;2023-01-31T06:52:58;101152.31;;;3.83;98.27
43770;BME280;6597;52.218;9.882;2023-01-31T06:55:24;101144.53;;;3.86;98.34
43770;BME280;6597;52.218;9.882;2023-01-31T06:57:52;101141.94;;;3.84;97.96
43770;BME280;6597;52.218;9.882;2023-01-31T07:00:20;101146.25;;;3.87;98.10
43770;BME280;6597;52.218;9.882;2023-01-31T07:02:49;101138.47;;;3.85;97.64
43770;BME280;6597;52.218;9.882;2023-01-31T07:05:17;101152.34;;;3.90;97.78
43770;BME280;6597;52.218;9.882;2023-01-31T07:07:43;101135.88;;;3.91;97.84
43770;BME280;6597;52.218;9.882;2023-01-31T07:10:11;101133.28;;;3.91;97.51
43770;BME280;6597;52.218;9.882;2023-01-31T07:12:37;101126.38;;;3.92;98.12
43770;BME280;6597;52.218;9.882;2023-01-31T07:15:07;101123.78;;;3.92;98.30
43770;BME280;6597;52.218;9.882;2023-01-31T07:17:33;101116.84;;;3.95;98.52
43770;BME280;6597;52.218;9.882;2023-01-31T07:20:00;101115.94;;;4.01;97.74
43770;BME280;6597;52.218;9.882;2023-01-31T07:22:26;101115.06;;;4.06;97.94
43770;BME280;6597;52.218;9.882;2023-01-31T07:24:53;101107.25;;;4.11;97.96
43770;BME280;6597;52.218;9.882;2023-01-31T07:27:19;101097.72;;;4.10;97.77
43770;BME280;6597;52.218;9.882;2023-01-31T07:29:46;101085.59;;;4.12;97.70
43770;BME280;6597;52.218;9.882;2023-01-31T07:32:14;101089.03;;;4.19;97.40
43770;BME280;6597;52.218;9.882;2023-01-31T07:34:40;101080.38;;;4.17;97.53
43770;BME280;6597;52.218;9.882;2023-01-31T07:37:07;101069.97;;;4.20;97.26
43770;BME280;6597;52.218;9.882;2023-01-31T07:39:34;101067.38;;;4.18;97.91
43770;BME280;6597;52.218;9.882;2023-01-31T07:42:00;101056.13;;;4.16;98.15
43770;BME280;6597;52.218;9.882;2023-01-31T07:44:27;101062.19;;;4.20;98.25
43770;BME280;6597;52.218;9.882;2023-01-31T07:46:53;101055.28;;;4.16;98.78
43770;BME280;6597;52.218;9.882;2023-01-31T07:49:22;101050.91;;;4.22;98.42
43770;BME280;6597;52.218;9.882;2023-01-31T07:51:48;101043.13;;;4.27;97.37
43770;BME280;6597;52.218;9.882;2023-01-31T07:54:15;101051.75;;;4.32;97.72
43770;BME280;6597;52.218;9.882;2023-01-31T07:56:41;101031.78;;;4.38;97.20
43770;BME280;6597;52.218;9.882;2023-01-31T07:59:08;101036.06;;;4.49;97.00
43770;BME280;6597;52.218;9.882;2023-01-31T08:01:34;101039.50;;;4.55;95.80
43770;BME280;6597;52.218;9.882;2023-01-31T08:04:18;101035.13;;;4.60;95.83
43770;BME280;6597;52.218;9.882;2023-01-31T08:06:46;101051.56;;;4.64;95.70
43770;BME280;6597;52.218;9.882;2023-01-31T08:09:14;101055.88;;;4.68;95.37
43770;BME280;6597;52.218;9.882;2023-01-31T08:11:41;101045.50;;;4.66;95.20
43770;BME280;6597;52.218;9.882;2023-01-31T08:14:07;101045.47;;;4.71;94.71
43770;BME280;6597;52.218;9.882;2023-01-31T08:16:34;101047.16;;;4.75;94.82
43770;BME280;6597;52.218;9.882;2023-01-31T08:19:01;101038.47;;;4.78;94.76
43770;BME280;6597;52.218;9.882;2023-01-31T08:21:28;101041.94;;;4.80;94.68
43770;BME280;6597;52.218;9.882;2023-01-31T08:23:56;101034.94;;;4.86;94.93
43770;BME280;6597;52.218;9.882;2023-01-31T08:26:22;101024.47;;;4.98;93.62
43770;BME280;6597;52.218;9.882;2023-01-31T08:28:51;101009.59;;;5.10;93.24
43770;BME280;6597;52.218;9.882;2023-01-31T08:31:20;100998.25;;;5.21;92.01
43770;BME280;6597;52.218;9.882;2023-01-31T08:33:47;100999.09;;;5.25;91.65
43770;BME280;6597;52.218;9.882;2023-01-31T08:36:17;100988.63;;;5.29;91.33
43770;BME280;6597;52.218;9.882;2023-01-31T08:38:44;100986.94;;;5.24;91.53
43770;BME280;6597;52.218;9.882;2023-01-31T08:41:12;100980.06;;;5.15;91.02
43770;BME280;6597;52.218;9.882;2023-01-31T08:43:39;100994.75;;;5.25;91.57
43770;BME280;6597;52.218;9.882;2023-01-31T08:46:06;100992.06;;;5.31;91.42
43770;BME280;6597;52.218;9.882;2023-01-31T08:48:33;100976.44;;;5.31;90.43
43770;BME280;6597;52.218;9.882;2023-01-31T08:51:00;100979.84;;;5.38;90.38
43770;BME280;6597;52.218;9.882;2023-01-31T08:53:28;100985.94;;;5.36;90.41
43770;BME280;6597;52.218;9.882;2023-01-31T08:55:57;100994.56;;;5.41;90.65
43770;BME280;6597;52.218;9.882;2023-01-31T08:58:25;100974.56;;;5.44;90.11
43770;BME280;6597;52.218;9.882;2023-01-31T09:00:52;100965.81;;;5.50;89.76
43770;BME280;6597;52.218;9.882;2023-01-31T09:03:23;100961.47;;;5.55;89.97
43770;BME280;6597;52.218;9.882;2023-01-31T09:05:50;100946.63;;;5.61;88.83
43770;BME280;6597;52.218;9.882;2023-01-31T09:08:17;100944.03;;;5.60;88.78
43770;BME280;6597;52.218;9.882;2023-01-31T09:10:49;100953.50;;;5.67;89.24
43770;BME280;6597;52.218;9.882;2023-01-31T09:13:16;100942.25;;;5.63;89.07
43770;BME280;6597;52.218;9.882;2023-01-31T09:15:44;100940.50;;;5.64;89.28
43770;BME280;6597;52.218;9.882;2023-01-31T09:18:11;100930.06;;;5.66;89.41
43770;BME280;6597;52.218;9.882;2023-01-31T09:20:38;100944.75;;;5.71;89.45
43770;BME280;6597;52.218;9.882;2023-01-31T09:23:04;100930.84;;;5.72;87.92
43770;BME280;6597;52.218;9.882;2023-01-31T09:25:31;100926.53;;;5.70;88.34
43770;BME280;6597;52.218;9.882;2023-01-31T09:27:58;100951.66;;;5.75;88.89
43770;BME280;6597;52.218;9.882;2023-01-31T09:30:25;100942.91;;;5.79;88.29
43770;BME280;6597;52.218;9.882;2023-01-31T09:32:53;100935.13;;;5.78;88.40
43770;BME280;6597;52.218;9.882;2023-01-31T09:35:20;100945.56;;;5.76;88.74
43770;BME280;6597;52.218;9.882;2023-01-31T09:37:46;100943.00;;;5.72;88.66
43770;BME280;6597;52.218;9.882;2023-01-31T09:40:19;100929.22;;;5.65;89.29
43770;BME280;6597;52.218;9.882;2023-01-31T09:42:49;100931.72;;;5.73;89.42
43770;BME280;6597;52.218;9.882;2023-01-31T09:45:25;100939.59;;;5.68;89.87
43770;BME280;6597;52.218;9.882;2023-01-31T09:47:55;100941.41;;;5.63;90.78
43770;BME280;6597;52.218;9.882;2023-01-31T09:50:30;100944.97;;;5.56;92.20
43770;BME280;6597;52.218;9.882;2023-01-31T09:52:58;100945.06;;;5.44;94.70
43770;BME280;6597;52.218;9.882;2023-01-31T09:55:30;100933.97;;;5.28;97.01
43770;BME280;6597;52.218;9.882;2023-01-31T09:58:04;100939.28;;;5.17;99.70
43770;BME280;6597;52.218;9.882;2023-01-31T10:00:40;100935.03;;;5.09;100.00
43770;BME280;6597;52.218;9.882;2023-01-31T10:03:33;100933.50;;;4.88;100.00
43770;BME280;6597;52.218;9.882;2023-01-31T10:06:07;100931.81;;;4.81;100.00
43770;BME280;6597;52.218;9.882;2023-01-31T10:08:42;100916.31;;;4.68;100.00
43770;BME280;6597;52.218;9.882;2023-01-31T10:11:17;100912.06;;;4.60;100.00
43770;BME280;6597;52.218;9.882;2023-01-31T10:13:52;100900.88;;;4.50;100.00
43770;BME280;6597;52.218;9.882;2023-01-31T10:16:25;100888.78;;;4.45;100.00
43770;BME280;6597;52.218;9.882;2023-01-31T10:18:58;100881.88;;;4.42;100.00
43770;BME280;6597;52.218;9.882;2023-01-31T10:21:31;100892.28;;;4.41;100.00
43770;BME280;6597;52.218;9.882;2023-01-31T10:24:04;100888.06;;;4.27;100.00
43770;BME280;6597;52.218;9.882;2023-01-31T10:26:36;100883.72;;;4.28;100.00
43770;BME280;6597;52.218;9.882;2023-01-31T10:29:11;100875.94;;;4.28;100.00
43770;BME280;6597;52.218;9.882;2023-01-31T10:31:41;100870.72;;;4.31;100.00
43770;BME280;6597;52.218;9.882;2023-01-31T10:34:12;100863.69;;;4.41;100.00
43770;BME280;6597;52.218;9.882;2023-01-31T10:36:44;100864.56;;;4.41;100.00
43770;BME280;6597;52.218;9.882;2023-01-31T10:39:18;100857.59;;;4.43;100.00
43770;BME280;6597;52.218;9.882;2023-01-31T10:41:59;100861.84;;;4.52;100.00
43770;BME280;6597;52.218;9.882;2023-01-31T10:44:41;100848.84;;;4.58;100.00
43770;BME280;6597;52.218;9.882;2023-01-31T10:47:14;100838.31;;;4.68;100.00
43770;BME280;6597;52.218;9.882;2023-01-31T10:49:44;100831.34;;;4.72;100.00
43770;BME280;6597;52.218;9.882;2023-01-31T10:52:20;100828.69;;;4.77;100.00
43770;BME280;6597;52.218;9.882;2023-01-31T10:54:59;100822.63;;;4.78;100.00
43770;BME280;6597;52.218;9.882;2023-01-31T10:57:29;100821.72;;;4.79;100.00
43770;BME280;6597;52.218;9.882;2023-01-31T10:59:56;100812.13;;;4.84;100.00
43770;BME280;6597;52.218;9.882;2023-01-31T11:02:24;100789.59;;;4.84;100.00
43770;BME280;6597;52.218;9.882;2023-01-31T11:04:54;100787.75;;;4.95;100.00
43770;BME280;6597;52.218;9.882;2023-01-31T11:07:22;100785.09;;;5.00;100.00
43770;BME280;6597;52.218;9.882;2023-01-31T11:09:51;100783.28;;;5.05;100.00
43770;BME280;6597;52.218;9.882;2023-01-31T11:12:19;100753.78;;;5.08;100.00
43770;BME280;6597;52.218;9.882;2023-01-31T11:15:03;100751.16;;;5.08;100.00
43770;BME280;6597;52.218;9.882;2023-01-31T11:17:32;100769.25;;;5.17;100.00
43770;BME280;6597;52.218;9.882;2023-01-31T11:20:03;100767.44;;;5.26;100.00
43770;BME280;6597;52.218;9.882;2023-01-31T11:22:32;100764.75;;;5.31;100.00
43770;BME280;6597;52.218;9.882;2023-01-31T11:25:02;100764.72;;;5.32;100.00
43770;BME280;6597;52.218;9.882;2023-01-31T11:27:32;100750.94;;;5.27;100.00
43770;BME280;6597;52.218;9.882;2023-01-31T11:30:04;100750.88;;;5.32;100.00
43770;BME280;6597;52.218;9.882;2023-01-31T11:32:34;100756.03;;;5.34;100.00
43770;BME280;6597;52.218;9.882;2023-01-31T11:35:05;100756.03;;;5.34;100.00
43770;BME280;6597;52.218;9.882;2023-01-31T11:37:33;100764.66;;;5.39;100.00
43770;BME280;6597;52.218;9.882;2023-01-31T11:40:01;100749.06;;;5.37;100.00
43770;BME280;6597;52.218;9.882;2023-01-31T11:42:27;100756.03;;;5.35;100.00
43770;BME280;6597;52.218;9.882;2023-01-31T11:44:55;100750.81;;;5.35;100.00
43770;BME280;6597;52.218;9.882;2023-01-31T11:47:27;100748.25;;;5.32;100.00
43770;BME280;6597;52.218;9.882;2023-01-31T11:49:56;100738.75;;;5.29;100.00
43770;BME280;6597;52.218;9.882;2023-01-31T11:52:29;100748.25;;;5.32;100.00
43770;BME280;6597;52.218;9.882;2023-01-31T11:54:58;100738.78;;;5.26;100.00
43770;BME280;6597;52.218;9.882;2023-01-31T11:57:30;100733.63;;;5.23;100.00
43770;BME280;6597;52.218;9.882;2023-01-31T11:59:58;100739.75;;;5.21;100.00
43770;BME280;6597;52.218;9.882;2023-01-31T12:02:31;100719.75;;;5.24;100.00
43770;BME280;6597;52.218;9.882;2023-01-31T12:05:00;100718.06;;;5.20;100.00
43770;BME280;6597;52.218;9.882;2023-01-31T12:07:31;100727.59;;;5.18;100.00
43770;BME280;6597;52.218;9.882;2023-01-31T12:10:24;100722.38;;;5.21;100.00
43770;BME280;6597;52.218;9.882;2023-01-31T12:12:51;100715.44;;;5.22;100.00
43770;BME280;6597;52.218;9.882;2023-01-31T12:15:18;100709.34;;;5.24;100.00
43770;BME280;6597;52.218;9.882;2023-01-31T12:17:46;100694.56;;;5.26;100.00
43770;BME280;6597;52.218;9.882;2023-01-31T12:20:22;100696.28;;;5.27;100.00
43770;BME280;6597;52.218;9.882;2023-01-31T12:23:01;100691.88;;;5.31;100.00
43770;BME280;6597;52.218;9.882;2023-01-31T12:25:47;100686.66;;;5.32;100.00
43770;BME280;6597;52.218;9.882;2023-01-31T12:28:28;100685.75;;;5.34;100.00
43770;BME280;6597;52.218;9.882;2023-01-31T12:34:01;100669.09;;;5.45;100.00
43770;BME280;6597;52.218;9.882;2023-01-31T12:36:38;100685.66;;;5.40;100.00
43770;BME280;6597;52.218;9.882;2023-01-31T12:39:27;100685.59;;;5.44;100.00
43770;BME280;6597;52.218;9.882;2023-01-31T12:42:06;100681.25;;;5.45;100.00
43770;BME280;6597;52.218;9.882;2023-01-31T12:44:42;100690.00;;;5.41;100.00
43770;BME280;6597;52.218;9.882;2023-01-31T12:47:35;100688.16;;;5.47;100.00
43770;BME280;6597;52.218;9.882;2023-01-31T12:50:23;100683.88;;;5.43;100.00
43770;BME280;6597;52.218;9.882;2023-01-31T12:53:07;100676.13;;;5.39;100.00
43770;BME280;6597;52.218;9.882;2023-01-31T12:55:40;100677.00;;;5.39;100.00
43770;BME280;6597;52.218;9.882;2023-01-31T12:58:22;100672.72;;;5.35;100.00
43770;BME280;6597;52.218;9.882;2023-01-31T13:01:00;100669.34;;;5.28;100.00
43770;BME280;6597;52.218;9.882;2023-01-31T13:03:36;100677.16;;;5.28;100.00
43770;BME280;6597;52.218;9.882;2023-01-31T13:06:08;100685.84;;;5.29;100.00
43770;BME280;6597;52.218;9.882;2023-01-31T13:08:41;100684.97;;;5.28;100.00
43770;BME280;6597;52.218;9.882;2023-01-31T13:11:13;100667.56;;;5.32;100.00
43770;BME280;6597;52.218;9.882;2023-01-31T13:13:44;100675.84;;;5.00;100.00
43770;BME280;6597;52.218;9.882;2023-01-31T13:16:16;100686.13;;;5.08;100.00
43770;BME280;6597;52.218;9.882;2023-01-31T13:18:46;100694.47;;;5.31;100.00
43770;BME280;6597;52.218;9.882;2023-01-31T13:21:16;100688.47;;;5.27;100.00
43770;BME280;6597;52.218;9.882;2023-01-31T13:23:47;100691.03;;;5.29;100.00
43770;BME280;6597;52.218;9.882;2023-01-31T13:26:18;100681.56;;;5.25;100.00
43770;BME280;6597;52.218;9.882;2023-01-31T13:28:48;100682.50;;;5.21;100.00
43770;BME280;6597;52.218;9.882;2023-01-31T13:31:20;100686.84;;;5.20;100.00